Koun Maru — JK5556 — position and weather

sailwx.info

Track history (hours):
 
Tides and Currents Weather Stations Pressure Air Temp Water Temp Dewpoint Dewpoint Depression Visibility Wind Speed Wind Dir Waves Ship Positions

Koun Maru

Last reported at 2014-Jul-31 12:32 UTC. Time now 2014-Jul-31 13:35 UTC.
Position N 34°12' E 135°08'.

Length 40 m.

Type: Tanker. MMSI: 431401871.

Date/timePositionNaut miles runAvg speedWind from/ knotsBaromVisibWave heightAir tempDewpointWater temp
2014-Jul-31 12:32N 34°12' E 135°08'0 0.0
2014-Jul-31 11:33N 34°12' E 135°08'0 0.0
2014-Jul-31 10:30N 34°12' E 135°08'0 0.0
2014-Jul-31 09:29N 34°12' E 135°08'0 0.0
2014-Jul-31 08:28N 34°12' E 135°08'0 0.0
2014-Jul-31 07:33N 34°12' E 135°08'0 0.0
2014-Jul-31 06:33N 34°12' E 135°08'0 0.0
2014-Jul-31 05:32N 34°12' E 135°08'1 1.5
2014-Jul-31 04:33N 34°13' E 135°07'27 4.2
2014-Jul-30 22:10N 34°36' E 135°25'6 9.6
2014-Jul-30 21:32N 34°40' E 135°20'2 2.0
2014-Jul-30 20:28N 34°41' E 135°17'0 0.0
2014-Jul-30 19:28N 34°41' E 135°17'0 0.0
2014-Jul-30 18:30N 34°41' E 135°17'0 0.0
2014-Jul-30 17:15N 34°41' E 135°17'0 0.0
2014-Jul-30 16:10N 34°41' E 135°17'0 0.0
2014-Jul-30 15:19N 34°41' E 135°17'0 0.0
2014-Jul-30 14:29N 34°41' E 135°17'0 0.0
2014-Jul-30 13:25N 34°41' E 135°17'0 0.3
2014-Jul-30 12:21N 34°41' E 135°17'0 0.0
2014-Jul-30 11:24N 34°41' E 135°17'0 0.0
2014-Jul-30 10:30N 34°41' E 135°17'0 0.3
2014-Jul-30 09:33N 34°41' E 135°17'0 0.0
2014-Jul-30 08:33N 34°41' E 135°17'0 0.0
2014-Jul-30 07:33N 34°41' E 135°17'0 0.0
2014-Jul-30 06:27N 34°41' E 135°17'4 4.9
2014-Jul-30 05:33N 34°40' E 135°23'4 0.1
2014-Jul-28 03:24N 34°39' E 135°27'9 9.6
2014-Jul-28 02:30N 34°32' E 135°20'21 4.9
2014-Jul-27 22:16N 34°14' E 135°08'29 0.9
2014-Jul-26 14:32N 34°39' E 135°27'1010.1
2014-Jul-26 13:33N 34°37' E 135°15'6 0.2
2014-Jul-25 09:13N 34°36' E 135°07'6 9.3
2014-Jul-25 08:33N 34°35' E 135°14'10 0.5
2014-Jul-24 11:15N 34°39' E 135°25'710.1
2014-Jul-24 10:33N 34°38' E 135°17'1010.0
2014-Jul-24 09:33N 34°36' E 135°05'2 0.1
2014-Jul-23 03:23N 34°37' E 135°06'7 8.3
2014-Jul-23 02:33N 34°41' E 135°13'2 2.2
2014-Jul-23 01:33N 34°42' E 135°15'0 0.0
2014-Jul-23 00:33N 34°42' E 135°15'0 0.0
2014-Jul-22 23:24N 34°42' E 135°15'0 0.5
2014-Jul-22 22:33N 34°42' E 135°15'10 9.5
2014-Jul-22 21:31N 34°39' E 135°26'0 0.0
2014-Jul-22 06:17N 34°39' E 135°27'910.0
2014-Jul-22 05:24N 34°32' E 135°19'1210.4
2014-Jul-22 04:15N 34°24' E 135°09'  
Track history (hours):
 
Tides and Currents Weather Stations Pressure Air Temp Water Temp Dewpoint Dewpoint Depression Visibility Wind Speed Wind Dir Waves Ship Positions

Koun Maru

Last reported at 2014-Jul-31 12:32 UTC. Time now 2014-Jul-31 13:35 UTC.
Position N 34°12' E 135°08'.

Length 40 m.

Type: Tanker. MMSI: 431401871.

Date/timePositionNaut miles runAvg speedWind from/ knotsBaromVisibWave heightAir tempDewpointWater temp
2014-Jul-31 12:32N 34°12' E 135°08'0 0.0
2014-Jul-31 11:33N 34°12' E 135°08'0 0.0
2014-Jul-31 10:30N 34°12' E 135°08'0 0.0
2014-Jul-31 09:29N 34°12' E 135°08'0 0.0
2014-Jul-31 08:28N 34°12' E 135°08'0 0.0
2014-Jul-31 07:33N 34°12' E 135°08'0 0.0
2014-Jul-31 06:33N 34°12' E 135°08'0 0.0
2014-Jul-31 05:32N 34°12' E 135°08'1 1.5
2014-Jul-31 04:33N 34°13' E 135°07'27 4.2
2014-Jul-30 22:10N 34°36' E 135°25'6 9.6
2014-Jul-30 21:32N 34°40' E 135°20'2 2.0
2014-Jul-30 20:28N 34°41' E 135°17'0 0.0
2014-Jul-30 19:28N 34°41' E 135°17'0 0.0
2014-Jul-30 18:30N 34°41' E 135°17'0 0.0
2014-Jul-30 17:15N 34°41' E 135°17'0 0.0
2014-Jul-30 16:10N 34°41' E 135°17'0 0.0
2014-Jul-30 15:19N 34°41' E 135°17'0 0.0
2014-Jul-30 14:29N 34°41' E 135°17'0 0.0
2014-Jul-30 13:25N 34°41' E 135°17'0 0.3
2014-Jul-30 12:21N 34°41' E 135°17'0 0.0
2014-Jul-30 11:24N 34°41' E 135°17'0 0.0
2014-Jul-30 10:30N 34°41' E 135°17'0 0.3
2014-Jul-30 09:33N 34°41' E 135°17'0 0.0
2014-Jul-30 08:33N 34°41' E 135°17'0 0.0
2014-Jul-30 07:33N 34°41' E 135°17'0 0.0
2014-Jul-30 06:27N 34°41' E 135°17'4 4.9
2014-Jul-30 05:33N 34°40' E 135°23'4 0.1
2014-Jul-28 03:24N 34°39' E 135°27'9 9.6
2014-Jul-28 02:30N 34°32' E 135°20'21 4.9
2014-Jul-27 22:16N 34°14' E 135°08'29 0.9
2014-Jul-26 14:32N 34°39' E 135°27'1010.1
2014-Jul-26 13:33N 34°37' E 135°15'6 0.2
2014-Jul-25 09:13N 34°36' E 135°07'6 9.3
2014-Jul-25 08:33N 34°35' E 135°14'10 0.5
2014-Jul-24 11:15N 34°39' E 135°25'710.1
2014-Jul-24 10:33N 34°38' E 135°17'1010.0
2014-Jul-24 09:33N 34°36' E 135°05'2 0.1
2014-Jul-23 03:23N 34°37' E 135°06'7 8.3
2014-Jul-23 02:33N 34°41' E 135°13'2 2.2
2014-Jul-23 01:33N 34°42' E 135°15'0 0.0
2014-Jul-23 00:33N 34°42' E 135°15'0 0.0
2014-Jul-22 23:24N 34°42' E 135°15'0 0.5
2014-Jul-22 22:33N 34°42' E 135°15'10 9.5
2014-Jul-22 21:31N 34°39' E 135°26'0 0.0
2014-Jul-22 06:17N 34°39' E 135°27'910.0
2014-Jul-22 05:24N 34°32' E 135°19'1210.4
2014-Jul-22 04:15N 34°24' E 135°09'  

Dump ship's entire track history